createdAt,value
2019-03-05T00:00:44.445Z,95275.42
2019-03-05T00:03:11.039Z,95275.99
2019-03-05T00:05:37.659Z,95285.45
2019-03-05T00:08:04.186Z,95290.47
2019-03-05T00:10:30.691Z,95294.52
2019-03-05T00:12:57.270Z,95286.41
2019-03-05T00:15:25.815Z,95284.11
2019-03-05T00:17:52.844Z,95283.54
2019-03-05T00:20:19.152Z,95272.15
2019-03-05T00:22:46.144Z,95279.34
2019-03-05T00:25:22.364Z,95275.07
2019-03-05T00:28:12.629Z,95269.31
2019-03-05T00:31:00.189Z,95283.83
2019-03-05T00:33:53.276Z,95290.03
2019-03-05T00:36:25.447Z,95302.77
2019-03-05T00:39:32.795Z,95308.96
2019-03-05T00:42:40.090Z,95298.92
2019-03-05T00:45:44.242Z,95312.06
2019-03-05T00:48:47.644Z,95322.32
2019-03-05T00:51:52.231Z,95317.70
2019-03-05T00:54:56.147Z,95326.59
2019-03-05T00:57:37.646Z,95334.88
2019-03-05T01:00:19.444Z,95345.61
2019-03-05T01:03:03.643Z,95353.52
2019-03-05T01:05:51.277Z,95350.38
2019-03-05T01:08:19.696Z,95343.56
2019-03-05T01:10:46.371Z,95356.52
2019-03-05T01:13:13.200Z,95351.11
2019-03-05T01:15:40.139Z,95354.52
2019-03-05T01:18:07.009Z,95369.34
2019-03-05T01:20:33.555Z,95369.03
2019-03-05T01:22:59.962Z,95364.48
2019-03-05T01:25:33.718Z,95361.86
2019-03-05T01:28:00.318Z,95369.88
2019-03-05T01:30:42.735Z,95378.34
2019-03-05T01:33:13.516Z,95384.70
2019-03-05T01:35:42.147Z,95400.70
2019-03-05T01:38:08.472Z,95431.35
2019-03-05T01:40:36.198Z,95430.13
2019-03-05T01:43:02.753Z,95440.31
2019-03-05T01:45:29.454Z,95448.66
2019-03-05T01:47:56.203Z,95469.91
2019-03-05T01:50:22.699Z,95476.28
2019-03-05T01:52:49.148Z,95483.63
2019-03-05T01:55:15.536Z,95487.88
2019-03-05T01:57:42.279Z,95494.57
2019-03-05T02:00:11.859Z,95505.83
2019-03-05T02:02:39.103Z,95516.73
2019-03-05T02:05:07.394Z,95514.38
2019-03-05T02:07:34.031Z,95524.61
2019-03-05T02:10:00.620Z,95526.62
2019-03-05T02:12:27.138Z,95538.09
2019-03-05T02:14:53.651Z,95545.16
2019-03-05T02:17:20.451Z,95549.85
2019-03-05T02:19:47.196Z,95549.39
2019-03-05T02:22:22.470Z,95558.63
2019-03-05T02:25:06.174Z,95571.08
2019-03-05T02:27:49.663Z,95581.72
2019-03-05T02:30:53.209Z,95578.93
2019-03-05T02:33:39.985Z,95583.20
2019-03-05T02:36:16.390Z,95594.77
2019-03-05T02:39:29.475Z,95598.47
2019-03-05T02:42:02.782Z,95607.34
2019-03-05T02:44:55.747Z,95603.08
2019-03-05T02:47:59.617Z,95601.50
2019-03-05T02:50:46.603Z,95613.06
2019-03-05T02:53:34.109Z,95623.28
2019-03-05T02:56:26.234Z,95627.98
2019-03-05T02:58:52.476Z,95631.23
2019-03-05T03:01:37.748Z,95636.06
2019-03-05T03:04:09.609Z,95638.66
2019-03-05T03:06:36.760Z,95644.59
2019-03-05T03:09:31.944Z,95651.89
2019-03-05T03:11:58.653Z,95656.16
2019-03-05T03:14:25.218Z,95668.39
2019-03-05T03:16:51.684Z,95663.88
2019-03-05T03:19:18.116Z,95665.59
2019-03-05T03:21:44.953Z,95672.97
2019-03-05T03:24:11.451Z,95675.77
2019-03-05T03:26:37.952Z,95680.13
2019-03-05T03:29:04.535Z,95686.11
2019-03-05T03:31:30.990Z,95686.98
2019-03-05T03:33:57.480Z,95682.39
2019-03-05T03:36:23.783Z,95685.75
2019-03-05T03:38:50.438Z,95700.94
2019-03-05T03:41:16.925Z,95703.73
2019-03-05T03:43:43.318Z,95702.75
2019-03-05T03:46:09.606Z,95705.78
2019-03-05T03:48:36.120Z,95706.15
2019-03-05T03:51:02.791Z,95699.75
2019-03-05T03:53:29.090Z,95694.27
2019-03-05T03:55:55.728Z,95682.80
2019-03-05T03:58:22.601Z,95671.69
2019-03-05T04:00:49.319Z,95673.13
2019-03-05T04:03:16.023Z,95687.53
2019-03-05T04:05:42.446Z,95683.25
2019-03-05T04:08:10.465Z,95675.73
2019-03-05T04:10:37.343Z,95674.61
2019-03-05T04:13:04.040Z,95673.78
2019-03-05T04:15:30.636Z,95675.68
2019-03-05T04:17:57.213Z,95688.67
2019-03-05T04:20:25.636Z,95693.72
2019-03-05T04:22:51.960Z,95693.27
2019-03-05T04:25:18.372Z,95702.78
2019-03-05T04:27:44.804Z,95709.31
2019-03-05T04:30:13.024Z,95719.39
2019-03-05T04:32:39.431Z,95718.13
2019-03-05T04:35:10.303Z,95715.56
2019-03-05T04:37:36.602Z,95719.14
2019-03-05T04:40:06.859Z,95712.27
2019-03-05T04:42:33.413Z,95708.34
2019-03-05T04:45:01.725Z,95710.89
2019-03-05T04:47:28.283Z,95710.98
2019-03-05T04:49:56.679Z,95710.75
2019-03-05T04:52:23.707Z,95709.20
2019-03-05T04:54:50.403Z,95710.20
2019-03-05T04:57:17.139Z,95714.91
2019-03-05T04:59:43.645Z,95727.02
2019-03-05T05:02:10.365Z,95721.97
2019-03-05T05:04:36.999Z,95727.91
2019-03-05T05:07:03.720Z,95735.98
2019-03-05T05:09:30.284Z,95731.63
2019-03-05T05:11:56.748Z,95734.31
2019-03-05T05:14:23.273Z,95734.87
2019-03-05T05:16:49.677Z,95738.35
2019-03-05T05:19:15.995Z,95738.67
2019-03-05T05:21:42.421Z,95740.66
2019-03-05T05:24:08.742Z,95752.58
2019-03-05T05:26:35.134Z,95756.78
2019-03-05T05:29:01.579Z,95752.52
2019-03-05T05:31:28.123Z,95752.08
2019-03-05T05:33:54.435Z,95763.63
2019-03-05T05:36:20.759Z,95750.61
2019-03-05T05:38:47.071Z,95752.52
2019-03-05T05:41:13.603Z,95758.13
2019-03-05T05:43:39.898Z,95766.53
2019-03-05T05:46:06.403Z,95765.33
2019-03-05T05:48:32.693Z,95777.00
2019-03-05T05:50:59.067Z,95783.88
2019-03-05T05:53:25.808Z,95779.20
2019-03-05T05:55:52.227Z,95780.89
2019-03-05T05:58:18.581Z,95783.73
2019-03-05T06:00:53.246Z,95775.45
2019-03-05T06:03:19.934Z,95768.72
2019-03-05T06:05:46.468Z,95779.16
2019-03-05T06:08:12.959Z,95778.70
2019-03-05T06:10:40.452Z,95786.07
2019-03-05T06:13:07.289Z,95785.43
2019-03-05T06:15:33.927Z,95788.15
2019-03-05T06:18:00.432Z,95793.61
2019-03-05T06:20:26.910Z,95795.48
2019-03-05T06:22:53.446Z,95812.87
2019-03-05T06:25:20.104Z,95810.02
2019-03-05T06:27:46.624Z,95819.19
2019-03-05T06:30:24.622Z,95824.26
2019-03-05T06:32:51.410Z,95812.59
2019-03-05T06:35:18.108Z,95819.33
2019-03-05T06:37:44.679Z,95818.77
2019-03-05T06:40:17.975Z,95823.17
2019-03-05T06:42:44.368Z,95824.51
2019-03-05T06:45:17.053Z,95829.66
2019-03-05T06:47:43.447Z,95834.84
2019-03-05T06:50:13.039Z,95837.41
2019-03-05T06:52:39.465Z,95833.42
2019-03-05T06:55:12.322Z,95835.86
2019-03-05T06:57:39.047Z,95835.62
2019-03-05T07:00:19.044Z,95825.53
2019-03-05T07:02:45.346Z,95839.47
2019-03-05T07:06:08.107Z,95835.48
2019-03-05T07:08:37.435Z,95846.01
2019-03-05T07:11:35.936Z,95825.61
2019-03-05T07:14:26.260Z,95809.87
2019-03-05T07:17:07.432Z,95807.86
2019-03-05T07:19:42.819Z,95803.96
2019-03-05T07:22:20.771Z,95827.72
2019-03-05T07:24:47.712Z,95824.48
2019-03-05T07:27:22.495Z,95811.59
2019-03-05T07:29:48.809Z,95839.35
2019-03-05T07:32:15.272Z,95845.28
2019-03-05T07:34:43.897Z,95845.11
2019-03-05T07:37:11.258Z,95840.70
2019-03-05T07:39:37.826Z,95842.19
2019-03-05T07:42:04.331Z,95848.19
2019-03-05T07:44:30.837Z,95851.33
2019-03-05T07:46:57.295Z,95853.95
2019-03-05T07:49:23.680Z,95851.12
2019-03-05T07:51:50.076Z,95855.97
2019-03-05T07:54:16.717Z,95853.03
2019-03-05T07:56:43.333Z,95864.41
2019-03-05T07:59:09.864Z,95867.80
2019-03-05T08:01:36.590Z,95860.03
2019-03-05T08:04:03.291Z,95870.16
2019-03-05T08:06:29.715Z,95869.05
2019-03-05T08:09:35.122Z,95868.50
2019-03-05T08:12:22.844Z,95859.71
2019-03-05T08:14:55.011Z,95850.36
2019-03-05T08:17:21.898Z,95860.74
2019-03-05T08:19:48.297Z,95868.05
2019-03-05T08:22:15.137Z,95868.84
2019-03-05T08:24:41.663Z,95874.47
2019-03-05T08:27:08.621Z,95868.94
2019-03-05T08:29:34.951Z,95875.25
2019-03-05T08:32:01.528Z,95884.24
2019-03-05T08:34:27.938Z,95889.86
2019-03-05T08:36:54.599Z,95882.34
2019-03-05T08:39:20.892Z,95872.18
2019-03-05T08:41:47.340Z,95862.95
2019-03-05T08:44:13.837Z,95850.68
2019-03-05T08:46:40.391Z,95856.16
2019-03-05T08:49:06.894Z,95831.78
2019-03-05T08:51:33.243Z,95836.37
2019-03-05T08:53:59.649Z,95822.73
2019-03-05T08:56:26.043Z,95818.58
2019-03-05T08:58:52.475Z,95816.89
2019-03-05T09:01:18.979Z,95837.22
2019-03-05T09:03:45.628Z,95847.22
2019-03-05T09:06:12.015Z,95853.36
2019-03-05T09:08:38.659Z,95876.41
2019-03-05T09:11:05.290Z,95884.17
2019-03-05T09:13:33.154Z,95885.68
2019-03-05T09:15:59.763Z,95864.36
2019-03-05T09:18:26.476Z,95899.17
2019-03-05T09:20:52.952Z,95911.41
2019-03-05T09:23:19.266Z,95904.22
2019-03-05T09:25:45.879Z,95911.23
2019-03-05T09:28:12.301Z,95921.25
2019-03-05T09:30:38.756Z,95921.78
2019-03-05T09:33:05.152Z,95928.95
2019-03-05T09:35:31.904Z,95931.41
2019-03-05T09:37:58.543Z,95944.46
2019-03-05T09:40:27.995Z,95950.23
2019-03-05T09:42:55.310Z,95934.78
2019-03-05T09:45:21.982Z,95938.67
2019-03-05T09:47:48.573Z,95952.27
2019-03-05T09:50:17.094Z,95941.45
2019-03-05T09:52:54.180Z,95948.98
2019-03-05T09:55:16.361Z,95961.36
2019-03-05T09:57:42.807Z,95957.73
2019-03-05T10:00:19.004Z,95955.45
2019-03-05T10:02:45.775Z,95961.83
2019-03-05T10:05:14.918Z,95964.92
2019-03-05T10:07:41.612Z,95964.36
2019-03-05T10:10:19.353Z,95969.30
2019-03-05T10:12:45.880Z,95965.38
2019-03-05T10:15:18.661Z,95979.48
2019-03-05T10:17:45.050Z,95969.66
2019-03-05T10:20:21.959Z,95974.22
2019-03-05T10:22:48.956Z,95969.71
2019-03-05T10:25:18.337Z,95975.50
2019-03-05T10:27:44.943Z,95973.03
2019-03-05T10:30:24.722Z,95980.85
2019-03-05T10:32:48.041Z,95966.33
2019-03-05T10:35:14.583Z,95976.64
2019-03-05T10:37:41.231Z,95969.66
2019-03-05T10:40:12.596Z,95960.66
2019-03-05T10:42:41.196Z,95963.37
2019-03-05T10:45:12.739Z,95953.89
2019-03-05T10:47:39.203Z,95960.88
2019-03-05T10:50:15.292Z,95960.66
2019-03-05T10:52:39.387Z,95959.98
2019-03-05T10:55:09.595Z,95957.27
2019-03-05T10:57:35.886Z,95953.97
2019-03-05T11:00:06.832Z,95961.34
2019-03-05T11:02:33.225Z,95965.81
2019-03-05T11:04:59.768Z,95969.87
2019-03-05T11:07:26.064Z,95969.23
2019-03-05T11:09:52.477Z,95951.97
2019-03-05T11:12:19.105Z,95956.83
2019-03-05T11:14:45.680Z,95948.88
2019-03-05T11:17:12.168Z,95946.81
2019-03-05T11:19:38.698Z,95947.05
2019-03-05T11:22:05.490Z,95947.58
2019-03-05T11:24:32.505Z,95944.13
2019-03-05T11:26:58.815Z,95945.72
2019-03-05T11:29:25.393Z,95943.38
2019-03-05T11:31:51.779Z,95954.47
2019-03-05T11:34:18.591Z,95965.59
2019-03-05T11:36:45.102Z,95979.32
2019-03-05T11:39:11.608Z,95968.92
2019-03-05T11:41:38.198Z,95960.22
2019-03-05T11:44:05.000Z,95957.52
2019-03-05T11:46:31.623Z,95959.42
2019-03-05T11:48:58.218Z,95972.24
2019-03-05T11:51:24.749Z,95973.41
2019-03-05T11:53:51.154Z,95967.74
2019-03-05T11:56:17.797Z,95957.98
2019-03-05T11:58:44.363Z,95960.25
2019-03-05T12:01:13.235Z,95985.18
2019-03-05T12:03:39.749Z,95992.58
2019-03-05T12:06:06.213Z,96004.78
2019-03-05T12:08:32.940Z,96024.66
2019-03-05T12:10:59.374Z,96033.09
2019-03-05T12:13:26.083Z,96024.90
2019-03-05T12:15:52.479Z,96024.66
2019-03-05T12:18:19.145Z,96031.62
2019-03-05T12:20:45.443Z,96001.07
2019-03-05T12:23:12.096Z,95999.02
2019-03-05T12:25:39.823Z,95985.38
2019-03-05T12:28:10.659Z,95983.59
2019-03-05T12:30:36.382Z,95977.31
2019-03-05T12:33:02.977Z,95971.92
2019-03-05T12:35:29.657Z,95968.55
2019-03-05T12:37:56.538Z,95973.08
2019-03-05T12:40:24.961Z,95967.55
2019-03-05T12:42:51.787Z,95967.78
2019-03-05T12:45:23.563Z,95967.88
2019-03-05T12:47:50.792Z,95965.32
2019-03-05T12:50:22.361Z,95975.20
2019-03-05T12:52:50.178Z,95973.33
2019-03-05T12:55:17.606Z,95975.44
2019-03-05T12:57:44.292Z,95971.87
2019-03-05T13:00:28.172Z,95962.98
2019-03-05T13:02:55.835Z,95960.86
2019-03-05T13:05:22.590Z,95954.83
2019-03-05T13:07:52.620Z,95947.52
2019-03-05T13:10:27.130Z,95940.45
2019-03-05T13:12:53.669Z,95932.75
2019-03-05T13:15:29.055Z,95925.11
2019-03-05T13:17:55.697Z,95930.54
2019-03-05T13:20:22.606Z,95931.97
2019-03-05T13:22:50.511Z,95943.10
2019-03-05T13:25:18.611Z,95933.86
2019-03-05T13:27:45.465Z,95928.95
2019-03-05T13:30:27.018Z,95924.56
2019-03-05T13:32:59.078Z,95926.08
2019-03-05T13:35:25.525Z,95922.23
2019-03-05T13:38:11.244Z,95903.88
2019-03-05T13:40:40.638Z,95922.86
2019-03-05T13:43:09.354Z,95908.60
2019-03-05T13:45:37.904Z,95907.30
2019-03-05T13:48:19.667Z,95919.89
2019-03-05T13:51:19.561Z,95917.48
2019-03-05T13:54:05.859Z,95914.42
2019-03-05T13:56:44.604Z,95916.56
2019-03-05T13:59:36.568Z,95917.05
2019-03-05T14:02:05.911Z,95914.75
2019-03-05T14:04:58.421Z,95919.14
2019-03-05T14:07:36.858Z,95927.84
2019-03-05T14:10:04.539Z,95937.57
2019-03-05T14:12:30.964Z,95940.36
2019-03-05T14:14:57.884Z,95932.06
2019-03-05T14:17:25.741Z,95920.78
2019-03-05T14:19:52.474Z,95916.59
2019-03-05T14:22:19.251Z,95917.89
2019-03-05T14:24:45.909Z,95917.98
2019-03-05T14:27:12.838Z,95911.21
2019-03-05T14:29:39.562Z,95911.67
2019-03-05T14:32:07.103Z,95916.25
2019-03-05T14:34:33.606Z,95915.02
2019-03-05T14:37:00.214Z,95926.20
2019-03-05T14:39:31.807Z,95925.97
2019-03-05T14:41:59.393Z,95927.16
2019-03-05T14:44:25.987Z,95943.73
2019-03-05T14:46:55.553Z,95950.11
2019-03-05T14:49:22.396Z,95960.98
2019-03-05T14:51:48.995Z,95948.81
2019-03-05T14:54:15.806Z,95954.48
2019-03-05T14:56:42.396Z,95953.85
2019-03-05T14:59:09.041Z,95964.19
2019-03-05T15:01:35.698Z,95982.16
2019-03-05T15:04:02.404Z,95986.70
2019-03-05T15:06:29.023Z,96020.77
2019-03-05T15:08:55.456Z,96032.42
2019-03-05T15:11:22.215Z,96036.15
2019-03-05T15:13:49.471Z,96043.16
2019-03-05T15:16:16.099Z,96029.64
2019-03-05T15:18:42.741Z,95975.20
2019-03-05T15:21:09.246Z,95975.55
2019-03-05T15:23:35.635Z,95968.34
2019-03-05T15:26:02.342Z,95965.95
2019-03-05T15:28:28.845Z,95971.91
2019-03-05T15:30:55.296Z,95963.02
2019-03-05T15:33:21.686Z,95957.81
2019-03-05T15:35:48.293Z,95963.77
2019-03-05T15:38:14.980Z,95970.52
2019-03-05T15:40:41.434Z,95972.31
2019-03-05T15:43:08.024Z,95975.44
2019-03-05T15:45:34.669Z,95970.14
2019-03-05T15:48:01.078Z,95970.03
2019-03-05T15:50:28.952Z,95965.42
2019-03-05T15:52:55.491Z,95972.61
2019-03-05T15:55:23.269Z,95975.77
2019-03-05T15:57:49.771Z,95970.05
2019-03-05T16:00:29.033Z,95971.06
2019-03-05T16:02:55.467Z,95976.23
2019-03-05T16:05:22.908Z,95979.26
2019-03-05T16:07:49.700Z,95976.56
2019-03-05T16:10:17.105Z,95976.80
2019-03-05T16:12:45.081Z,95979.48
2019-03-05T16:15:13.714Z,95970.51
2019-03-05T16:17:40.307Z,95974.79
2019-03-05T16:20:13.155Z,95968.04
2019-03-05T16:22:39.791Z,95977.48
2019-03-05T16:25:13.729Z,95980.19
2019-03-05T16:27:41.576Z,95977.25
2019-03-05T16:30:38.213Z,95974.79
2019-03-05T16:33:12.488Z,95975.02
2019-03-05T16:35:55.914Z,95977.92
2019-03-05T16:38:40.871Z,95991.55
2019-03-05T16:41:26.115Z,95991.41
2019-03-05T16:44:03.459Z,95990.94
2019-03-05T16:46:30.123Z,95990.52
2019-03-05T16:49:15.287Z,95994.11
2019-03-05T16:51:54.430Z,95995.37
2019-03-05T16:54:27.118Z,95995.83
2019-03-05T16:56:56.146Z,95992.58
2019-03-05T16:59:27.393Z,96000.44
2019-03-05T17:02:00.110Z,95996.16
2019-03-05T17:04:28.505Z,96001.09
2019-03-05T17:07:17.021Z,95991.65
2019-03-05T17:09:45.261Z,95996.16
2019-03-05T17:12:11.785Z,96006.40
2019-03-05T17:14:38.262Z,96007.42
2019-03-05T17:17:05.078Z,96011.91
2019-03-05T17:19:31.601Z,96010.55
2019-03-05T17:21:58.327Z,96018.66
2019-03-05T17:24:25.006Z,96013.26
2019-03-05T17:26:51.479Z,96019.12
2019-03-05T17:29:17.928Z,96020.28
2019-03-05T17:31:44.692Z,96022.20
2019-03-05T17:34:11.427Z,96029.28
2019-03-05T17:36:38.142Z,96022.44
2019-03-05T17:39:06.335Z,96028.41
2019-03-05T17:41:32.834Z,96026.86
2019-03-05T17:43:59.160Z,96025.28
2019-03-05T17:46:25.581Z,96026.18
2019-03-05T17:48:51.916Z,96016.72
2019-03-05T17:51:18.346Z,96020.58
2019-03-05T17:53:44.799Z,96018.66
2019-03-05T17:56:11.414Z,96010.10
2019-03-05T17:58:37.811Z,96017.88
2019-03-05T18:01:06.388Z,96018.34
2019-03-05T18:03:32.708Z,96021.83
2019-03-05T18:05:59.218Z,96015.83
2019-03-05T18:08:25.717Z,96010.89
2019-03-05T18:10:52.313Z,96015.17
2019-03-05T18:13:18.733Z,96011.58
2019-03-05T18:15:45.335Z,96017.22
2019-03-05T18:18:11.809Z,96014.94
2019-03-05T18:20:38.435Z,96017.21
2019-03-05T18:23:05.019Z,96012.50
2019-03-05T18:25:31.542Z,96010.00
2019-03-05T18:27:58.463Z,96012.14
2019-03-05T18:30:28.566Z,95998.52
2019-03-05T18:32:55.548Z,95996.71
2019-03-05T18:35:22.045Z,96004.16
2019-03-05T18:37:48.671Z,96002.24
2019-03-05T18:40:17.262Z,95996.28
2019-03-05T18:42:44.188Z,96005.41
2019-03-05T18:45:14.996Z,96003.92
2019-03-05T18:47:41.292Z,96006.63
2019-03-05T18:50:13.376Z,96011.57
2019-03-05T18:52:39.672Z,96012.03
2019-03-05T18:55:14.485Z,96010.78
2019-03-05T18:57:41.523Z,96017.77
2019-03-05T19:00:18.569Z,96022.16
2019-03-05T19:02:45.058Z,96024.66
2019-03-05T19:05:14.352Z,96031.28
2019-03-05T19:07:41.065Z,96021.72
2019-03-05T19:10:15.161Z,96034.55
2019-03-05T19:12:41.693Z,96041.66
2019-03-05T19:15:13.259Z,96055.27
2019-03-05T19:17:39.862Z,96072.19
2019-03-05T19:20:13.832Z,96080.66
2019-03-05T19:22:40.285Z,96098.46
2019-03-05T19:25:12.436Z,96111.65
2019-03-05T19:27:38.755Z,96117.26
2019-03-05T19:30:19.432Z,96130.08
2019-03-05T19:32:46.261Z,96128.11
2019-03-05T19:35:13.086Z,96137.84
2019-03-05T19:37:39.603Z,96139.91
2019-03-05T19:40:14.004Z,96150.63
2019-03-05T19:42:40.432Z,96165.55
2019-03-05T19:45:11.049Z,96165.84
2019-03-05T19:47:37.600Z,96172.00
2019-03-05T19:50:14.875Z,96174.90
2019-03-05T19:52:41.625Z,96167.88
2019-03-05T19:55:11.624Z,96164.01
2019-03-05T19:57:38.416Z,96166.11
2019-03-05T20:00:10.400Z,96164.49
2019-03-05T20:02:36.804Z,96173.34
2019-03-05T20:05:05.667Z,96186.31
2019-03-05T20:07:32.409Z,96200.98
2019-03-05T20:09:59.147Z,96213.31
2019-03-05T20:12:25.653Z,96228.66
2019-03-05T20:14:52.061Z,96241.92
2019-03-05T20:17:18.534Z,96244.41
2019-03-05T20:19:45.085Z,96251.58
2019-03-05T20:22:12.197Z,96254.67
2019-03-05T20:24:38.726Z,96265.08
2019-03-05T20:27:05.031Z,96261.04
2019-03-05T20:29:31.847Z,96262.13
2019-03-05T20:31:58.239Z,96272.27
2019-03-05T20:34:24.589Z,96278.03
2019-03-05T20:36:51.350Z,96283.16
2019-03-05T20:39:17.924Z,96278.70
2019-03-05T20:41:44.278Z,96282.06
2019-03-05T20:44:10.766Z,96285.94
2019-03-05T20:46:37.061Z,96292.62
2019-03-05T20:49:03.820Z,96273.24
2019-03-05T20:51:30.236Z,96279.38
2019-03-05T20:53:56.663Z,96286.90
2019-03-05T20:56:23.404Z,96289.73
2019-03-05T20:58:49.956Z,96294.42
2019-03-05T21:01:16.459Z,96291.62
2019-03-05T21:03:42.984Z,96289.07
2019-03-05T21:06:09.606Z,96291.56
2019-03-05T21:08:36.395Z,96289.18
2019-03-05T21:11:03.301Z,96298.58
2019-03-05T21:13:29.998Z,96286.82
2019-03-05T21:15:56.535Z,96286.03
2019-03-05T21:18:23.411Z,96291.16
2019-03-05T21:20:49.797Z,96298.58
2019-03-05T21:23:16.745Z,96305.55
2019-03-05T21:25:43.707Z,96314.59
2019-03-05T21:28:10.371Z,96316.90
2019-03-05T21:30:36.661Z,96319.70
2019-03-05T21:33:03.164Z,96314.81
2019-03-05T21:35:29.668Z,96321.05
2019-03-05T21:37:57.779Z,96326.97
2019-03-05T21:40:27.920Z,96323.02
2019-03-05T21:42:54.559Z,96322.77
2019-03-05T21:45:35.835Z,96324.86
2019-03-05T21:48:03.703Z,96319.64
2019-03-05T21:50:30.116Z,96313.91
2019-03-05T21:52:56.548Z,96331.73
2019-03-05T21:55:23.038Z,96332.15
2019-03-05T21:57:49.522Z,96337.72
2019-03-05T22:00:23.208Z,96350.47
2019-03-05T22:02:50.293Z,96346.54
2019-03-05T22:05:16.765Z,96346.98
2019-03-05T22:07:43.303Z,96354.72
2019-03-05T22:10:16.659Z,96364.38
2019-03-05T22:12:43.121Z,96365.47
2019-03-05T22:15:20.858Z,96369.89
2019-03-05T22:17:48.540Z,96377.52
2019-03-05T22:20:17.217Z,96381.69
2019-03-05T22:22:43.718Z,96392.44
2019-03-05T22:25:18.319Z,96385.11
2019-03-05T22:27:44.984Z,96393.34
2019-03-05T22:30:18.502Z,96391.64
2019-03-05T22:32:44.954Z,96400.92
2019-03-05T22:35:14.031Z,96407.50
2019-03-05T22:37:40.954Z,96406.66
2019-03-05T22:40:11.287Z,96412.28
2019-03-05T22:42:37.961Z,96413.38
2019-03-05T22:45:09.853Z,96419.61
2019-03-05T22:47:36.358Z,96418.84
2019-03-05T22:50:07.056Z,96420.65
2019-03-05T22:52:33.373Z,96418.20
2019-03-05T22:54:59.716Z,96426.22
2019-03-05T22:57:26.200Z,96428.28
2019-03-05T22:59:52.621Z,96427.92
2019-03-05T23:02:18.976Z,96431.56
2019-03-05T23:04:45.574Z,96433.95
2019-03-05T23:07:13.539Z,96435.00
2019-03-05T23:09:40.168Z,96434.86
2019-03-05T23:12:06.750Z,96430.83
2019-03-05T23:14:33.142Z,96438.29
2019-03-05T23:16:59.626Z,96432.30
2019-03-05T23:19:27.024Z,96442.92
2019-03-05T23:21:53.520Z,96446.36
2019-03-05T23:24:20.230Z,96451.73
2019-03-05T23:26:46.963Z,96457.33
2019-03-05T23:29:14.178Z,96457.58
2019-03-05T23:31:40.715Z,96464.55
2019-03-05T23:34:07.288Z,96466.64
2019-03-05T23:36:33.572Z,96467.49
2019-03-05T23:39:00.242Z,96472.33
2019-03-05T23:41:26.764Z,96475.27
2019-03-05T23:43:53.283Z,96481.44
2019-03-05T23:46:19.855Z,96479.30
2019-03-05T23:48:46.637Z,96474.16
2019-03-05T23:51:12.958Z,96475.67
2019-03-05T23:53:39.265Z,96475.37
2019-03-05T23:56:06.005Z,96479.34
2019-03-05T23:58:32.397Z,96486.57
